createdAt,value
2024-03-12T00:01:56.574Z,100483.00
2024-03-12T00:06:34.511Z,100487.13
2024-03-12T00:11:12.588Z,100490.44
2024-03-12T00:15:50.604Z,100499.28
2024-03-12T00:20:37.519Z,100507.41
2024-03-12T00:25:16.617Z,100511.38
2024-03-12T00:29:54.496Z,100515.41
2024-03-12T00:34:33.551Z,100519.75
2024-03-12T00:39:18.463Z,100519.72
2024-03-12T00:43:59.562Z,100533.97
2024-03-12T00:48:31.446Z,100535.22
2024-03-12T00:53:03.571Z,100533.59
2024-03-12T00:57:46.582Z,100528.75
2024-03-12T01:02:27.610Z,100536.44
2024-03-12T01:07:06.594Z,100540.81
2024-03-12T01:11:45.471Z,100529.50
2024-03-12T01:16:26.474Z,100528.06
2024-03-12T01:21:05.487Z,100539.50
2024-03-12T01:25:44.497Z,100530.31
2024-03-12T01:30:24.512Z,100539.00
2024-03-12T01:35:06.515Z,100539.66
2024-03-12T01:39:46.514Z,100530.34
2024-03-12T01:44:24.565Z,100539.66
2024-03-12T01:49:03.486Z,100545.91
2024-03-12T01:53:46.722Z,100556.53
2024-03-12T01:58:25.497Z,100540.72
2024-03-12T02:03:04.474Z,100545.63
2024-03-12T02:07:43.496Z,100549.25
2024-03-12T02:12:18.499Z,100552.56
2024-03-12T02:16:58.490Z,100567.00
2024-03-12T02:21:37.551Z,100567.47
2024-03-12T02:26:19.532Z,100556.78
2024-03-12T02:30:57.585Z,100561.81
2024-03-12T02:35:36.095Z,100563.25
2024-03-12T02:40:17.360Z,100558.75
2024-03-12T02:44:59.466Z,100568.53
2024-03-12T02:49:37.472Z,100585.22
2024-03-12T02:54:15.526Z,100594.38
2024-03-12T02:58:53.474Z,100590.84
2024-03-12T03:03:35.545Z,100592.50
2024-03-12T03:08:13.514Z,100586.81
2024-03-12T03:12:51.643Z,100592.13
2024-03-12T03:17:30.514Z,100606.59
2024-03-12T03:22:12.599Z,100599.13
2024-03-12T03:26:50.471Z,100601.25
2024-03-12T03:31:29.527Z,100605.22
2024-03-12T03:36:09.512Z,100611.25
2024-03-12T03:40:50.513Z,100612.66
2024-03-12T03:45:29.463Z,100612.44
2024-03-12T03:50:07.484Z,100617.84
2024-03-12T03:54:45.470Z,100627.72
2024-03-12T03:59:27.466Z,100635.22
2024-03-12T04:04:06.617Z,100633.13
2024-03-12T04:08:44.515Z,100639.81
2024-03-12T04:13:23.481Z,100654.50
2024-03-12T04:18:06.066Z,100654.50
2024-03-12T04:22:44.605Z,100663.59
2024-03-12T04:27:23.476Z,100664.25
2024-03-12T04:32:03.585Z,100665.97
2024-03-12T04:36:44.494Z,100663.88
2024-03-12T04:41:22.468Z,100662.44
2024-03-12T04:46:00.500Z,100658.69
2024-03-12T04:50:38.520Z,100678.63
2024-03-12T04:55:20.491Z,100676.50
2024-03-12T04:59:58.460Z,100685.69
2024-03-12T05:04:36.590Z,100688.56
2024-03-12T05:09:14.563Z,100691.28
2024-03-12T05:13:56.697Z,100691.84
2024-03-12T05:18:35.520Z,100699.31
2024-03-12T05:23:18.465Z,100707.81
2024-03-12T05:27:56.476Z,100716.63
2024-03-12T05:32:37.619Z,100719.34
2024-03-12T05:37:23.497Z,100735.66
2024-03-12T05:42:14.460Z,100732.69
2024-03-12T05:47:12.470Z,100755.34
2024-03-12T05:51:47.481Z,100752.06
2024-03-12T05:56:27.538Z,100757.31
2024-03-12T06:01:06.541Z,100759.59
2024-03-12T06:05:44.551Z,100772.38
2024-03-12T06:10:27.487Z,100775.31
2024-03-12T06:15:06.435Z,100783.59
2024-03-12T06:19:44.588Z,100790.91
2024-03-12T06:24:24.749Z,100796.09
2024-03-12T06:29:06.441Z,100802.09
2024-03-12T06:33:47.474Z,100806.88
2024-03-12T06:38:28.460Z,100802.88
2024-03-12T06:43:00.466Z,100808.91
2024-03-12T06:47:46.487Z,100818.47
2024-03-12T06:52:24.457Z,100824.94
2024-03-12T06:57:03.427Z,100831.19
2024-03-12T07:01:48.757Z,100836.38
2024-03-12T07:06:32.427Z,100834.25
2024-03-12T07:11:11.460Z,100842.19
2024-03-12T07:15:56.511Z,100838.25
2024-03-12T07:20:37.416Z,100839.94
2024-03-12T07:25:18.462Z,100846.19
2024-03-12T07:29:51.244Z,100855.53
2024-03-12T07:34:23.495Z,100860.56
2024-03-12T07:39:04.626Z,100868.84
2024-03-12T07:43:45.413Z,100872.44
2024-03-12T07:48:24.490Z,100878.47
2024-03-12T07:52:56.483Z,100877.84
2024-03-12T07:57:38.427Z,100884.09
2024-03-12T08:02:24.433Z,100883.72
2024-03-12T08:07:06.589Z,100886.06
2024-03-12T08:11:46.498Z,100894.75
2024-03-12T08:16:25.412Z,100892.03
2024-03-12T08:21:06.443Z,100896.22
2024-03-12T08:25:55.085Z,100897.41
2024-03-12T08:30:37.462Z,100902.00
2024-03-12T08:35:16.416Z,100908.59
2024-03-12T08:39:57.412Z,100916.97
2024-03-12T08:44:36.411Z,100927.38
2024-03-12T08:49:18.709Z,100918.59
2024-03-12T08:53:57.405Z,100939.69
2024-03-12T08:58:40.650Z,100939.81
2024-03-12T09:03:19.518Z,100941.47
2024-03-12T09:07:57.478Z,100960.66
2024-03-12T09:12:38.418Z,100961.06
2024-03-12T09:17:20.448Z,100959.19
2024-03-12T09:21:53.414Z,100975.44
2024-03-12T09:26:31.514Z,100964.44
2024-03-12T09:31:09.492Z,100977.97
2024-03-12T09:35:51.455Z,100978.75
2024-03-12T09:40:29.426Z,100978.78
2024-03-12T09:45:10.690Z,100983.38
2024-03-12T09:49:51.404Z,100988.34
2024-03-12T09:54:35.465Z,100994.34
2024-03-12T09:59:15.636Z,100996.84
2024-03-12T10:03:54.506Z,101012.09
2024-03-12T10:08:36.408Z,101005.38
2024-03-12T10:13:22.399Z,101006.44
2024-03-12T10:18:15.400Z,101011.44
2024-03-12T10:22:54.404Z,101018.50
2024-03-12T10:27:36.429Z,101004.13
2024-03-12T10:32:36.726Z,101010.84
2024-03-12T10:37:15.592Z,101017.09
2024-03-12T10:41:53.438Z,101012.09
2024-03-12T10:46:32.396Z,101021.47
2024-03-12T10:51:14.704Z,101025.63
2024-03-12T10:55:48.395Z,101031.22
2024-03-12T11:00:28.406Z,101031.81
2024-03-12T11:05:07.473Z,101032.06
2024-03-12T11:09:49.438Z,101036.41
2024-03-12T11:14:28.396Z,101026.50
2024-03-12T11:19:08.418Z,101039.41
2024-03-12T11:23:47.716Z,101036.41
2024-03-12T11:28:33.436Z,101031.84
2024-03-12T11:33:14.395Z,101030.59
2024-03-12T11:37:54.392Z,101033.06
2024-03-12T11:42:32.413Z,101039.03
2024-03-12T11:47:14.377Z,101040.88
2024-03-12T11:52:10.442Z,101041.28
2024-03-12T11:56:48.390Z,101045.03
2024-03-12T12:01:31.544Z,101051.50
2024-03-12T12:06:14.386Z,101062.34
2024-03-12T12:10:52.428Z,101051.34
2024-03-12T12:15:30.535Z,101057.97
2024-03-12T12:20:26.388Z,101063.22
2024-03-12T12:25:01.405Z,101060.94
2024-03-12T12:29:41.407Z,101061.00
2024-03-12T12:34:20.370Z,101052.69
2024-03-12T12:39:03.510Z,101063.91
2024-03-12T12:43:50.387Z,101062.38
2024-03-12T12:48:30.380Z,101068.22
2024-03-12T12:53:13.387Z,101065.75
2024-03-12T12:57:52.423Z,101067.16
2024-03-12T13:02:34.390Z,101057.31
2024-03-12T13:07:12.456Z,101056.50
2024-03-12T13:11:51.383Z,101052.28
2024-03-12T13:16:32.376Z,101051.81
2024-03-12T13:21:15.411Z,101057.84
2024-03-12T13:25:54.408Z,101054.47
2024-03-12T13:30:33.413Z,101062.97
2024-03-12T13:35:11.404Z,101048.53
2024-03-12T13:39:53.503Z,101053.84
2024-03-12T13:44:32.392Z,101050.66
2024-03-12T13:49:27.444Z,101059.34
2024-03-12T13:54:05.373Z,101052.38
2024-03-12T13:58:48.748Z,101055.28
2024-03-12T14:03:28.495Z,101050.91
2024-03-12T14:08:06.373Z,101046.63
2024-03-12T14:12:38.816Z,101059.50
2024-03-12T14:17:13.346Z,101060.34
2024-03-12T14:21:51.392Z,101061.41
2024-03-12T14:26:29.380Z,101061.41
2024-03-12T14:31:07.382Z,101057.13
2024-03-12T14:35:48.350Z,101053.34
2024-03-12T14:40:27.856Z,101053.59
2024-03-12T14:45:05.363Z,101060.91
2024-03-12T14:49:44.410Z,101055.47
2024-03-12T14:54:25.382Z,101051.63
2024-03-12T14:59:03.385Z,101054.94
2024-03-12T15:03:42.437Z,101049.06
2024-03-12T15:08:22.379Z,101041.34
2024-03-12T15:13:03.421Z,101048.84
2024-03-12T15:17:41.886Z,101044.66
2024-03-12T15:22:20.466Z,101044.22
2024-03-12T15:26:59.382Z,101046.19
2024-03-12T15:31:41.390Z,101054.69
2024-03-12T15:36:20.362Z,101044.66
2024-03-12T15:40:58.365Z,101044.47
2024-03-12T15:45:37.387Z,101041.50
2024-03-12T15:50:19.392Z,101052.69
2024-03-12T15:54:58.404Z,101042.03
2024-03-12T15:59:37.361Z,101045.19
2024-03-12T16:04:15.668Z,101051.84
2024-03-12T16:08:58.348Z,101050.78
2024-03-12T16:13:37.409Z,101044.97
2024-03-12T16:18:15.403Z,101040.38
2024-03-12T16:22:53.360Z,101047.31
2024-03-12T16:27:35.399Z,101045.03
2024-03-12T16:32:26.426Z,101032.75
2024-03-12T16:37:04.394Z,101029.81
2024-03-12T16:41:42.344Z,101025.44
2024-03-12T16:46:24.382Z,101034.25
2024-03-12T16:51:02.350Z,101038.25
2024-03-12T16:55:41.338Z,101039.53
2024-03-12T17:00:21.360Z,101035.22
2024-03-12T17:05:04.332Z,101040.72
2024-03-12T17:09:44.381Z,101040.41
2024-03-12T17:14:30.344Z,101038.19
2024-03-12T17:19:14.453Z,101035.97
2024-03-12T17:23:55.353Z,101033.78
2024-03-12T17:28:35.351Z,101042.84
2024-03-12T17:33:15.405Z,101044.97
2024-03-12T17:37:56.341Z,101046.31
2024-03-12T17:42:37.388Z,101045.53
2024-03-12T17:47:19.346Z,101044.72
2024-03-12T17:51:59.366Z,101047.91
2024-03-12T17:56:40.340Z,101041.53
2024-03-12T18:01:23.449Z,101040.31
2024-03-12T18:05:58.220Z,101043.72
2024-03-12T18:10:35.370Z,101052.88
2024-03-12T18:15:13.508Z,101052.72
2024-03-12T18:19:55.337Z,101053.56
2024-03-12T18:24:33.332Z,101044.66
2024-03-12T18:29:11.335Z,101035.53
2024-03-12T18:33:49.393Z,101045.94
2024-03-12T18:38:32.333Z,101046.78
2024-03-12T18:43:11.344Z,101036.81
2024-03-12T18:47:50.489Z,101039.72
2024-03-12T18:52:23.339Z,101051.19
2024-03-12T18:57:04.315Z,101040.38
2024-03-12T19:01:43.488Z,101038.28
2024-03-12T19:06:27.317Z,101048.88
2024-03-12T19:11:06.338Z,101053.66
2024-03-12T19:15:44.438Z,101050.94
2024-03-12T19:20:26.412Z,101044.47
2024-03-12T19:25:04.387Z,101037.38
2024-03-12T19:29:42.325Z,101029.47
2024-03-12T19:34:25.420Z,101022.16
2024-03-12T19:39:05.379Z,101024.22
2024-03-12T19:43:38.203Z,101012.38
2024-03-12T19:48:10.354Z,101004.69
2024-03-12T19:52:54.362Z,101003.66
2024-03-12T19:57:32.308Z,100996.16
2024-03-12T20:02:12.405Z,101002.47
2024-03-12T20:06:50.344Z,100999.13
2024-03-12T20:11:32.548Z,101003.69
2024-03-12T20:16:10.357Z,101000.78
2024-03-12T20:20:50.366Z,101003.72
2024-03-12T20:25:29.361Z,101002.31
2024-03-12T20:30:11.305Z,100996.69
2024-03-12T20:34:50.330Z,101000.44
2024-03-12T20:39:32.343Z,100991.09
2024-03-12T20:44:10.341Z,100999.84
2024-03-12T20:48:52.354Z,100997.53
2024-03-12T20:53:30.321Z,101011.72
2024-03-12T20:58:08.456Z,101005.03
2024-03-12T21:02:46.419Z,101008.56
2024-03-12T21:07:27.354Z,101000.69
2024-03-12T21:12:05.349Z,101003.59
2024-03-12T21:16:43.331Z,100997.78
2024-03-12T21:21:23.319Z,101002.97
2024-03-12T21:26:04.304Z,100995.50
2024-03-12T21:30:44.406Z,100981.56
2024-03-12T21:35:23.290Z,100997.16
2024-03-12T21:40:01.350Z,101000.06
2024-03-12T21:44:44.301Z,101000.69
2024-03-12T21:49:23.339Z,101003.81
2024-03-12T21:54:06.088Z,100993.00
2024-03-12T21:58:46.304Z,101000.22
2024-03-12T22:03:27.313Z,100985.50
2024-03-12T22:08:05.293Z,100985.28
2024-03-12T22:12:43.410Z,100974.69
2024-03-12T22:17:16.293Z,100964.09
2024-03-12T22:21:58.327Z,100968.44
2024-03-12T22:26:37.306Z,100972.56
2024-03-12T22:31:16.407Z,100978.63
2024-03-12T22:35:54.295Z,100977.59
2024-03-12T22:40:35.285Z,100979.44
2024-03-12T22:45:14.293Z,100975.94
2024-03-12T22:49:53.295Z,100978.81
2024-03-12T22:54:32.310Z,100967.81
2024-03-12T22:59:14.283Z,100960.53
2024-03-12T23:03:54.333Z,100969.84
2024-03-12T23:08:36.309Z,100965.28
2024-03-12T23:13:14.406Z,100966.97
2024-03-12T23:17:56.293Z,100955.97
2024-03-12T23:22:35.324Z,100953.47
2024-03-12T23:27:13.294Z,100957.19
2024-03-12T23:31:51.354Z,100968.22
2024-03-12T23:36:35.291Z,100962.59
2024-03-12T23:41:13.280Z,100971.72
2024-03-12T23:45:51.327Z,100961.16
2024-03-12T23:50:29.273Z,100957.00
2024-03-12T23:55:11.343Z,100965.13
2024-03-12T23:59:52.283Z,100961.78
